»·PEaware :: N99MA KSNA-KONT

N99MA :: KSNA-KONT

FLIGHT INFORMATION

Flight Status: Arrived
Operator: Privately registered:
United States
More flights under this callsign
Pilot: Russell S. (23440)
Aircraft: BEECH AIRCRAFT BARON
(BE58)
More flights by this aircraft type
Origin: KSNA John Wayne-Orange Co
United States
Destination: KONT Ontario Intl
United States
More flights between these airports :: More routes between these airports
Route: +SLI V8 PDZ
File this flight plan on PilotEdge
Remarks: I-4
Altitude:
(Current/Filed)
5,000ft
Speed:
(Current/Filed)
170kts
Departed: 14-Mar-19 04:37 PM
Arrived: 14-Mar-19 05:12 PM
Distance/Time
Traveled:
26nm/0:35
Distance/Time
To Go:
Arrived

Flight Plot

Page will automatically refresh every two minutes.


Map Options




Map Legend


Flown Route
Filed Route
Departure Airport
Arrival Airport
Navaid (VOR, NDB)
Fix

Horizontal Profiles

Position Reports

Time Latitude Longitude Heading Altitude Ground
Speed
14-Mar-19 16:17 33.676214 -117.871097 212 60ft 0kts
14-Mar-19 16:18 33.676214 -117.871097 212 60ft 0kts
14-Mar-19 16:19 33.676214 -117.871097 212 60ft 0kts
14-Mar-19 16:20 33.676214 -117.871097 212 60ft 0kts
14-Mar-19 16:21 33.676214 -117.871097 212 60ft 0kts
14-Mar-19 16:22 33.676214 -117.871097 212 60ft 0kts
14-Mar-19 16:23 33.676214 -117.871097 212 60ft 0kts
14-Mar-19 16:24 33.676214 -117.871097 212 60ft 0kts
14-Mar-19 16:25 33.676214 -117.871097 212 60ft 0kts
14-Mar-19 16:26 33.676214 -117.871097 212 60ft 0kts
14-Mar-19 16:27 33.676214 -117.871097 212 60ft 0kts
14-Mar-19 16:28 33.676214 -117.871097 212 60ft 0kts
14-Mar-19 16:29 33.676214 -117.871097 212 60ft 0kts
14-Mar-19 16:30 33.676214 -117.871097 212 60ft 0kts
14-Mar-19 16:31 33.676214 -117.871097 212 60ft 0kts
14-Mar-19 16:32 33.676214 -117.871097 212 60ft 0kts
14-Mar-19 16:33 33.669440 -117.874197 209 60ft 31kts
14-Mar-19 16:34 33.668327 -117.874524 116 60ft 0kts
14-Mar-19 16:35 33.668327 -117.874524 116 60ft 0kts
14-Mar-19 16:36 33.670907 -117.871857 25 60ft 70kts
14-Mar-19 16:37 33.698979 -117.875648 286 583ft 143kts
14-Mar-19 16:38 33.686701 -117.925893 250 1685ft 162kts
14-Mar-19 16:39 33.672189 -117.977233 250 2869ft 162kts
14-Mar-19 16:40 33.688454 -118.018404 354 3960ft 150kts
14-Mar-19 16:41 33.728646 -118.030572 346 4968ft 147kts
14-Mar-19 16:42 33.773037 -118.046183 19 5016ft 172kts
14-Mar-19 16:43 33.797620 -117.999161 71 5015ft 171kts
14-Mar-19 16:44 33.812088 -117.943738 71 5014ft 171kts
14-Mar-19 16:45 33.826328 -117.888666 71 5013ft 171kts
14-Mar-19 16:46 33.840568 -117.833484 70 5010ft 171kts
14-Mar-19 16:47 33.854807 -117.778193 70 5015ft 170kts
14-Mar-19 16:48 33.868884 -117.723402 70 5020ft 168kts
14-Mar-19 16:49 33.882780 -117.669106 69 5025ft 167kts
14-Mar-19 16:50 33.899380 -117.617714 30 5022ft 163kts
14-Mar-19 16:51 33.926167 -117.656994 297 5026ft 187kts
14-Mar-19 16:52 33.947656 -117.711508 301 5020ft 168kts
14-Mar-19 16:53 33.968033 -117.761108 301 5020ft 160kts
14-Mar-19 16:54 33.987732 -117.807959 301 4899ft 149kts
14-Mar-19 16:56 34.005937 -117.849521 301 4130ft 126kts
14-Mar-19 16:57 34.031639 -117.862202 0 4014ft 97kts
14-Mar-19 16:58 34.050335 -117.843657 61 4051ft 111kts
14-Mar-19 16:59 34.063503 -117.802677 61 4032ft 140kts
14-Mar-19 17:00 34.088116 -117.770191 71 4033ft 143kts
14-Mar-19 17:01 34.064019 -117.742111 179 4026ft 153kts
14-Mar-19 17:02 34.021044 -117.741557 177 4033ft 148kts
14-Mar-19 17:03 34.002310 -117.773102 270 4016ft 133kts
14-Mar-19 17:04 34.010294 -117.813287 339 3974ft 127kts
14-Mar-19 17:05 34.047130 -117.816550 0 3567ft 144kts
14-Mar-19 17:06 34.072678 -117.789143 107 2655ft 143kts
14-Mar-19 17:07 34.063387 -117.748751 108 2691ft 115kts
14-Mar-19 17:08 34.056648 -117.710710 87 2432ft 124kts
14-Mar-19 17:09 34.056853 -117.669120 91 1777ft 113kts
14-Mar-19 17:10 34.056865 -117.635763 87 1250ft 92kts
14-Mar-19 17:11 34.056942 -117.609361 89 947ft 44kts
14-Mar-19 17:12 34.057819 -117.607424 345 947ft 0kts
14-Mar-19 17:13 34.058709 -117.607995 335 947ft 0kts
14-Mar-19 17:14 34.058709 -117.607995 335 947ft 0kts
14-Mar-19 17:14 34.058709 -117.607995 335 947ft 0kts

Navigation Log

Ident Type
Flight plan parsing failed, navigation log unavailable